Aviation Digital Data Service (ADDS)

Output produced by METARs form (1607 UTC 26 April 2019)
found at http://www.aviationweather.gov/metar/data/
 
TAF EDDF 261100Z 2612/2718 24009KT 9999 SCT015 BKN040 
     BECMG 2613/2615 SCT040 
     PROB30 
     TEMPO 2616/2620 27014KT SHRA SCT030CB 
     BECMG 2618/2620 20004KT 
     PROB40 
     TEMPO 2705/2708 BKN012 
     BECMG 2706/2708 21012KT 
     BECMG 2708/2711 23015G25KT 
     PROB40 
     TEMPO 2710/2714 RA BKN014 
     TEMPO 2714/2718 SHRA SCT030CB 
     PROB30 
     TEMPO 2715/2718 27020G30KT TSRA